createdAt,value
2017-08-29T00:00:52.728Z,15.17
2017-08-29T00:03:19.072Z,18.23
2017-08-29T00:05:45.388Z,14.17
2017-08-29T00:08:11.712Z,15.80
2017-08-29T00:10:38.050Z,15.10
2017-08-29T00:13:04.366Z,15.47
2017-08-29T00:15:30.720Z,14.00
2017-08-29T00:17:57.056Z,14.20
2017-08-29T00:20:23.423Z,14.80
2017-08-29T00:22:49.749Z,22.03
2017-08-29T00:25:16.131Z,15.57
2017-08-29T00:27:42.470Z,17.50
2017-08-29T00:30:08.885Z,14.60
2017-08-29T00:32:35.278Z,14.67
2017-08-29T00:35:01.660Z,14.50
2017-08-29T00:37:28.035Z,16.50
2017-08-29T00:39:54.408Z,15.57
2017-08-29T00:42:20.870Z,15.87
2017-08-29T00:44:47.272Z,17.20
2017-08-29T00:47:13.671Z,14.70
2017-08-29T00:49:40.116Z,15.50
2017-08-29T00:52:06.511Z,16.37
2017-08-29T00:57:06.015Z,16.30
2017-08-29T00:59:32.438Z,15.10
2017-08-29T01:01:58.794Z,18.37
2017-08-29T01:04:25.155Z,16.90
2017-08-29T01:06:51.512Z,16.07
2017-08-29T01:09:18.043Z,15.77
2017-08-29T01:11:44.456Z,17.57
2017-08-29T01:14:10.803Z,15.20
2017-08-29T01:16:37.206Z,15.73
2017-08-29T01:19:03.596Z,15.57
2017-08-29T01:21:30.027Z,15.57
2017-08-29T01:23:56.400Z,15.43
2017-08-29T01:26:23.097Z,14.53
2017-08-29T01:28:49.520Z,14.53
2017-08-29T01:31:15.907Z,14.90
2017-08-29T01:33:42.268Z,15.33
2017-08-29T01:36:08.694Z,17.20
2017-08-29T01:38:35.086Z,16.40
2017-08-29T01:41:01.501Z,16.53
2017-08-29T01:43:27.865Z,15.77
2017-08-29T01:45:54.298Z,20.67
2017-08-29T01:48:20.717Z,17.10
2017-08-29T01:50:47.088Z,15.67
2017-08-29T01:53:13.478Z,15.53
2017-08-29T01:55:39.880Z,15.77
2017-08-29T01:58:06.272Z,15.90
2017-08-29T02:00:32.631Z,15.43
2017-08-29T02:02:59.272Z,16.00
2017-08-29T02:05:25.616Z,18.50
2017-08-29T02:07:51.967Z,16.03
2017-08-29T02:10:18.303Z,16.43
2017-08-29T02:12:44.735Z,15.53
2017-08-29T02:15:11.098Z,16.43
2017-08-29T02:17:37.468Z,16.07
2017-08-29T02:20:03.849Z,16.70
2017-08-29T02:22:30.272Z,16.37
2017-08-29T02:24:56.691Z,16.00
2017-08-29T02:27:23.037Z,16.47
2017-08-29T02:29:49.596Z,16.87
2017-08-29T02:32:15.977Z,16.50
2017-08-29T02:34:43.096Z,17.27
2017-08-29T02:37:09.480Z,16.80
2017-08-29T02:39:35.830Z,16.77
2017-08-29T02:42:02.239Z,16.13
2017-08-29T02:44:28.553Z,18.67
2017-08-29T02:46:54.897Z,15.53
2017-08-29T02:49:21.247Z,15.50
2017-08-29T02:51:47.747Z,15.93
2017-08-29T02:54:21.071Z,15.87
2017-08-29T02:56:47.443Z,15.37
2017-08-29T02:59:13.872Z,17.67
2017-08-29T03:01:40.295Z,21.07
2017-08-29T03:04:06.717Z,17.50
2017-08-29T03:06:33.072Z,15.13
2017-08-29T03:08:59.447Z,16.40
2017-08-29T03:11:25.804Z,16.90
2017-08-29T03:13:52.257Z,16.60
2017-08-29T03:16:18.737Z,15.60
2017-08-29T03:18:45.134Z,15.07
2017-08-29T03:21:11.508Z,16.90
2017-08-29T03:23:37.910Z,16.47
2017-08-29T03:26:04.231Z,16.60
2017-08-29T03:28:30.568Z,18.00
2017-08-29T03:30:56.978Z,16.57
2017-08-29T03:33:23.297Z,17.00
2017-08-29T03:35:49.656Z,18.13
2017-08-29T03:38:15.982Z,17.17
2017-08-29T03:40:42.332Z,17.60
2017-08-29T03:43:08.645Z,16.37
2017-08-29T03:45:35.003Z,17.53
2017-08-29T03:48:01.370Z,16.27
2017-08-29T03:50:27.934Z,15.43
2017-08-29T03:52:54.277Z,16.33
2017-08-29T03:55:20.666Z,16.63
2017-08-29T03:57:47.046Z,16.43
2017-08-29T04:00:13.431Z,16.77
2017-08-29T04:02:39.759Z,18.03
2017-08-29T04:05:06.120Z,17.70
2017-08-29T04:07:32.462Z,16.27
2017-08-29T04:09:58.921Z,19.00
2017-08-29T04:12:25.280Z,17.83
2017-08-29T04:14:51.613Z,16.83
2017-08-29T04:17:18.140Z,18.20
2017-08-29T04:19:44.527Z,18.27
2017-08-29T04:22:10.908Z,17.97
2017-08-29T04:24:37.881Z,18.03
2017-08-29T04:27:04.443Z,17.97
2017-08-29T04:29:31.009Z,19.00
2017-08-29T04:31:57.491Z,18.73
2017-08-29T04:34:23.948Z,18.53
2017-08-29T04:36:50.354Z,18.40
2017-08-29T04:39:16.725Z,19.23
2017-08-29T04:41:43.299Z,18.03
2017-08-29T04:44:09.627Z,18.43
2017-08-29T04:46:35.998Z,19.40
2017-08-29T04:49:02.341Z,19.97
2017-08-29T04:51:28.714Z,19.67
2017-08-29T04:53:55.030Z,17.60
2017-08-29T04:56:21.412Z,17.67
2017-08-29T04:58:47.775Z,18.17
2017-08-29T05:01:14.208Z,18.00
2017-08-29T05:03:40.777Z,17.73
2017-08-29T05:06:07.247Z,18.17
2017-08-29T05:08:34.204Z,18.83
2017-08-29T05:11:00.673Z,19.00
2017-08-29T05:13:27.255Z,20.90
2017-08-29T05:15:53.834Z,19.33
2017-08-29T05:20:53.498Z,20.63
2017-08-29T05:23:20.151Z,18.63
2017-08-29T05:25:47.718Z,18.17
2017-08-29T05:28:14.227Z,18.67
2017-08-29T05:30:40.765Z,18.60
2017-08-29T05:33:07.271Z,20.20
2017-08-29T05:35:33.679Z,17.87
2017-08-29T05:38:00.055Z,19.53
2017-08-29T05:40:26.421Z,20.23
2017-08-29T05:42:52.856Z,19.83
2017-08-29T05:45:19.253Z,20.53
2017-08-29T05:47:46.326Z,20.33
2017-08-29T05:50:12.772Z,21.50
2017-08-29T05:52:39.284Z,23.00
2017-08-29T05:55:05.807Z,20.50
2017-08-29T05:57:32.286Z,21.60
2017-08-29T05:59:58.651Z,22.57
2017-08-29T06:02:25.165Z,22.57
2017-08-29T06:04:51.679Z,23.73
2017-08-29T06:07:18.068Z,22.20
2017-08-29T06:09:44.469Z,22.60
2017-08-29T06:12:10.899Z,21.80
2017-08-29T06:14:37.338Z,26.13
2017-08-29T06:17:03.709Z,23.43
2017-08-29T06:19:30.067Z,22.77
2017-08-29T06:21:56.442Z,21.17
2017-08-29T06:24:22.924Z,22.80
2017-08-29T06:26:49.310Z,21.37
2017-08-29T06:29:15.641Z,22.37
2017-08-29T06:31:41.987Z,22.20
2017-08-29T06:34:08.307Z,28.67
2017-08-29T06:36:34.657Z,22.60
2017-08-29T06:39:00.992Z,23.23
2017-08-29T06:41:27.346Z,22.00
2017-08-29T06:43:53.706Z,25.40
2017-08-29T06:46:20.069Z,26.23
2017-08-29T06:48:46.480Z,26.67
2017-08-29T06:51:12.855Z,22.30
2017-08-29T06:53:39.221Z,20.13
2017-08-29T06:56:05.586Z,26.70
2017-08-29T06:58:31.962Z,23.93
2017-08-29T07:00:58.351Z,25.83
2017-08-29T07:03:24.696Z,24.57
2017-08-29T07:05:51.012Z,23.33
2017-08-29T07:08:17.360Z,22.67
2017-08-29T07:10:43.682Z,25.30
2017-08-29T07:13:10.094Z,25.83
2017-08-29T07:15:36.484Z,25.60
2017-08-29T07:18:02.841Z,24.20
2017-08-29T07:20:29.322Z,25.83
2017-08-29T07:22:55.707Z,24.40
2017-08-29T07:25:22.044Z,27.33
2017-08-29T07:27:48.393Z,22.50
2017-08-29T07:30:14.748Z,25.40
2017-08-29T07:32:41.057Z,23.27
2017-08-29T07:35:08.164Z,26.33
2017-08-29T07:37:34.796Z,24.17
2017-08-29T07:40:01.963Z,25.47
2017-08-29T07:42:29.569Z,22.70
2017-08-29T07:44:56.055Z,26.37
2017-08-29T07:47:22.427Z,22.50
2017-08-29T07:49:48.821Z,21.37
2017-08-29T07:52:15.349Z,21.40
2017-08-29T07:54:41.692Z,25.30
2017-08-29T07:57:08.010Z,23.30
2017-08-29T07:59:34.474Z,23.63
2017-08-29T08:02:00.890Z,21.57
2017-08-29T08:04:27.258Z,18.93
2017-08-29T08:06:53.631Z,20.17
2017-08-29T08:09:19.960Z,20.13
2017-08-29T08:11:46.380Z,20.40
2017-08-29T08:14:12.791Z,18.60
2017-08-29T08:16:39.160Z,18.40
2017-08-29T08:19:05.517Z,19.07
2017-08-29T08:21:31.936Z,18.90
2017-08-29T08:23:58.743Z,20.40
2017-08-29T08:26:25.429Z,21.80
2017-08-29T08:28:52.013Z,19.57
2017-08-29T08:31:18.380Z,17.23
2017-08-29T08:33:44.699Z,19.93
2017-08-29T08:36:11.794Z,17.90
2017-08-29T08:38:38.421Z,19.17
2017-08-29T08:41:04.747Z,19.93
2017-08-29T08:43:31.096Z,18.47
2017-08-29T08:45:57.518Z,18.63
2017-08-29T08:48:23.840Z,17.97
2017-08-29T08:50:50.173Z,18.27
2017-08-29T08:53:16.552Z,18.00
2017-08-29T08:55:42.940Z,19.40
2017-08-29T08:58:09.333Z,20.40
2017-08-29T09:00:36.213Z,19.53
2017-08-29T09:03:02.609Z,18.20
2017-08-29T09:05:28.936Z,17.90
2017-08-29T09:07:55.321Z,16.20
2017-08-29T09:10:21.700Z,17.07
2017-08-29T09:12:48.377Z,16.33
2017-08-29T09:15:14.732Z,18.00
2017-08-29T09:17:41.110Z,16.77
2017-08-29T09:20:07.699Z,16.30
2017-08-29T09:22:34.152Z,16.70
2017-08-29T09:25:00.530Z,14.80
2017-08-29T09:27:26.931Z,16.03
2017-08-29T09:29:53.333Z,15.83
2017-08-29T09:32:19.785Z,15.47
2017-08-29T09:34:46.137Z,15.93
2017-08-29T09:37:12.499Z,15.20
2017-08-29T09:39:39.054Z,16.07
2017-08-29T09:42:05.475Z,14.20
2017-08-29T09:44:31.866Z,16.27
2017-08-29T09:46:58.212Z,20.83
2017-08-29T09:49:24.563Z,14.90
2017-08-29T09:51:50.908Z,14.20
2017-08-29T09:54:17.569Z,16.27
2017-08-29T09:56:43.925Z,14.80
2017-08-29T09:59:10.533Z,15.13
2017-08-29T10:01:36.984Z,15.30
2017-08-29T10:04:03.532Z,13.13
2017-08-29T10:06:30.899Z,14.63
2017-08-29T10:08:57.550Z,15.10
2017-08-29T10:11:23.873Z,15.37
2017-08-29T10:13:50.191Z,14.53
2017-08-29T10:16:16.543Z,13.83
2017-08-29T10:18:42.884Z,14.00
2017-08-29T10:21:09.295Z,14.47
2017-08-29T10:23:35.630Z,13.17
2017-08-29T10:26:01.987Z,13.40
2017-08-29T10:28:28.309Z,14.80
2017-08-29T10:30:54.680Z,13.63
2017-08-29T10:33:21.047Z,12.50
2017-08-29T10:35:47.704Z,12.67
2017-08-29T10:38:14.077Z,12.17
2017-08-29T10:40:40.443Z,12.37
2017-08-29T10:43:06.817Z,12.70
2017-08-29T10:45:33.399Z,12.77
2017-08-29T10:47:59.837Z,12.93
2017-08-29T10:50:26.277Z,12.83
2017-08-29T10:52:52.689Z,12.60
2017-08-29T10:55:19.043Z,12.87
2017-08-29T10:57:45.399Z,12.37
2017-08-29T11:00:11.765Z,13.00
2017-08-29T11:02:38.140Z,12.83
2017-08-29T11:05:04.525Z,13.33
2017-08-29T11:07:31.219Z,12.07
2017-08-29T11:09:57.547Z,11.73
2017-08-29T11:12:23.937Z,13.13
2017-08-29T11:14:50.403Z,12.33
2017-08-29T11:17:16.718Z,12.30
2017-08-29T11:19:43.245Z,12.37
2017-08-29T11:22:09.792Z,10.50
2017-08-29T11:24:36.231Z,11.77
2017-08-29T11:27:02.678Z,13.63
2017-08-29T11:29:29.080Z,12.53
2017-08-29T11:31:55.482Z,12.87
2017-08-29T11:34:21.901Z,12.70
2017-08-29T11:36:48.384Z,12.27
2017-08-29T11:39:14.771Z,11.80
2017-08-29T11:41:41.357Z,12.00
2017-08-29T11:44:07.828Z,11.50
2017-08-29T11:46:34.253Z,12.63
2017-08-29T11:49:01.238Z,12.27
2017-08-29T11:51:27.723Z,11.53
2017-08-29T11:53:54.148Z,12.80
2017-08-29T11:56:20.642Z,12.20
2017-08-29T11:58:47.029Z,14.23
2017-08-29T12:01:13.490Z,13.90
2017-08-29T12:03:40.023Z,12.67
2017-08-29T12:06:06.432Z,13.23
2017-08-29T12:08:32.789Z,12.10
2017-08-29T12:10:59.276Z,14.10
2017-08-29T12:13:25.640Z,12.77
2017-08-29T12:15:51.964Z,13.30
2017-08-29T12:18:18.403Z,12.90
2017-08-29T12:20:44.776Z,12.70
2017-08-29T12:23:11.176Z,12.47
2017-08-29T12:25:37.518Z,12.40
2017-08-29T12:28:03.914Z,12.67
2017-08-29T12:30:30.246Z,13.53
2017-08-29T12:32:57.063Z,11.80
2017-08-29T12:35:23.761Z,13.40
2017-08-29T12:37:50.190Z,14.30
2017-08-29T12:40:16.623Z,12.30
2017-08-29T12:42:43.029Z,13.20
2017-08-29T12:45:09.374Z,14.43
2017-08-29T12:47:35.763Z,13.27
2017-08-29T12:50:02.207Z,13.70
2017-08-29T12:52:28.540Z,12.07
2017-08-29T12:54:54.949Z,12.57
2017-08-29T12:57:21.346Z,12.97
2017-08-29T12:59:47.663Z,12.97
2017-08-29T13:02:14.105Z,12.53
2017-08-29T13:04:40.487Z,12.80
2017-08-29T13:07:06.804Z,12.20
2017-08-29T13:09:33.161Z,13.60
2017-08-29T13:11:59.556Z,13.23
2017-08-29T13:14:25.880Z,12.90
2017-08-29T13:16:52.286Z,12.50
2017-08-29T13:19:18.646Z,13.37
2017-08-29T13:21:44.988Z,12.30
2017-08-29T13:24:11.426Z,12.80
2017-08-29T13:26:37.889Z,11.80
2017-08-29T13:29:04.210Z,12.50
2017-08-29T13:31:30.607Z,13.07
2017-08-29T13:33:56.943Z,12.53
2017-08-29T13:36:23.311Z,13.40
2017-08-29T13:38:49.622Z,13.00
2017-08-29T13:41:15.928Z,12.20
2017-08-29T13:43:42.291Z,12.20
2017-08-29T13:46:08.503Z,13.50
2017-08-29T13:48:34.731Z,12.27
2017-08-29T13:51:01.454Z,12.50
2017-08-29T13:53:27.722Z,11.43
2017-08-29T13:56:08.966Z,11.40
2017-08-29T13:58:35.575Z,11.10
2017-08-29T14:01:01.935Z,12.17
2017-08-29T14:03:28.278Z,12.30
2017-08-29T14:05:54.684Z,12.00
2017-08-29T14:08:21.061Z,13.07
2017-08-29T14:10:47.428Z,13.03
2017-08-29T14:13:13.828Z,13.90
2017-08-29T14:15:40.242Z,13.03
2017-08-29T14:18:06.760Z,13.93
2017-08-29T14:20:33.106Z,13.00
2017-08-29T14:22:59.464Z,13.77
2017-08-29T14:25:25.814Z,11.80
2017-08-29T14:27:52.231Z,12.17
2017-08-29T14:30:18.599Z,11.73
2017-08-29T14:32:45.035Z,12.13
2017-08-29T14:35:11.643Z,12.93
2017-08-29T14:37:37.949Z,12.63
2017-08-29T14:40:04.459Z,12.10
2017-08-29T14:42:31.049Z,11.97
2017-08-29T14:44:57.415Z,12.73
2017-08-29T14:47:36.250Z,12.07
2017-08-29T14:50:02.588Z,13.00
2017-08-29T14:52:28.947Z,11.33
2017-08-29T14:54:55.377Z,11.97
2017-08-29T14:57:21.811Z,11.43
2017-08-29T14:59:48.578Z,12.27
2017-08-29T15:02:15.085Z,12.10
2017-08-29T15:04:41.528Z,12.80
2017-08-29T15:07:07.906Z,12.50
2017-08-29T15:09:34.293Z,12.10
2017-08-29T15:12:01.000Z,11.47
2017-08-29T15:14:27.446Z,12.23
2017-08-29T15:16:54.699Z,11.17
2017-08-29T15:19:21.141Z,11.93
2017-08-29T15:21:47.499Z,17.53
2017-08-29T15:24:13.806Z,12.07
2017-08-29T15:26:40.199Z,12.17
2017-08-29T15:29:06.554Z,12.70
2017-08-29T15:31:33.365Z,11.90
2017-08-29T15:33:59.727Z,11.43
2017-08-29T15:36:26.051Z,11.90
2017-08-29T15:38:52.427Z,11.77
2017-08-29T15:41:18.750Z,12.00
2017-08-29T15:43:45.186Z,11.90
2017-08-29T15:46:11.556Z,11.30
2017-08-29T15:48:37.983Z,11.67
2017-08-29T15:51:04.343Z,13.10
2017-08-29T15:53:30.702Z,11.70
2017-08-29T15:55:57.041Z,11.63
2017-08-29T15:58:23.393Z,12.70
2017-08-29T16:00:49.757Z,12.60
2017-08-29T16:03:16.178Z,11.37
2017-08-29T16:05:42.794Z,12.83
2017-08-29T16:08:09.164Z,11.90
2017-08-29T16:10:35.575Z,11.40
2017-08-29T16:13:01.892Z,11.37
2017-08-29T16:15:28.436Z,12.10
2017-08-29T16:17:54.805Z,11.87
2017-08-29T16:20:21.214Z,11.77
2017-08-29T16:22:47.572Z,12.77
2017-08-29T16:25:13.993Z,11.30
2017-08-29T16:27:40.469Z,10.67
2017-08-29T16:30:06.791Z,11.03
2017-08-29T16:32:33.177Z,11.07
2017-08-29T16:34:59.734Z,11.43
2017-08-29T16:37:26.059Z,10.80
2017-08-29T16:39:52.648Z,10.83
2017-08-29T16:42:19.030Z,12.13
2017-08-29T16:44:45.986Z,10.40
2017-08-29T16:47:12.670Z,11.20
2017-08-29T16:49:39.588Z,11.33
2017-08-29T16:52:05.980Z,12.10
2017-08-29T16:54:32.374Z,10.70
2017-08-29T16:56:58.699Z,10.17
2017-08-29T16:59:25.044Z,11.57
2017-08-29T17:01:51.407Z,10.63
2017-08-29T17:04:17.732Z,11.13
2017-08-29T17:06:44.151Z,11.10
2017-08-29T17:09:10.628Z,10.50
2017-08-29T17:11:37.220Z,10.20
2017-08-29T17:14:03.883Z,11.70
2017-08-29T17:16:30.377Z,11.17
2017-08-29T17:18:56.783Z,12.00
2017-08-29T17:21:23.196Z,11.80
2017-08-29T17:23:49.608Z,12.57
2017-08-29T17:26:15.937Z,12.50
2017-08-29T17:28:42.378Z,10.90
2017-08-29T17:31:08.878Z,11.93
2017-08-29T17:33:35.419Z,10.57
2017-08-29T17:36:01.802Z,14.43
2017-08-29T17:38:28.168Z,11.23
2017-08-29T17:40:54.514Z,10.63
2017-08-29T17:43:20.888Z,10.90
2017-08-29T17:45:47.207Z,12.33
2017-08-29T17:48:13.527Z,12.47
2017-08-29T17:50:39.891Z,12.80
2017-08-29T17:53:06.205Z,15.23
2017-08-29T17:55:32.587Z,12.90
2017-08-29T17:57:59.064Z,12.13
2017-08-29T18:00:25.469Z,12.87
2017-08-29T18:02:51.960Z,11.60
2017-08-29T18:05:18.319Z,10.97
2017-08-29T18:07:45.143Z,11.83
2017-08-29T18:10:11.619Z,11.50
2017-08-29T18:12:37.982Z,13.80
2017-08-29T18:15:04.311Z,11.73
2017-08-29T18:17:30.648Z,12.30
2017-08-29T18:19:57.128Z,13.40
2017-08-29T18:22:23.678Z,10.90
2017-08-29T18:24:50.143Z,11.73
2017-08-29T18:27:16.513Z,12.13
2017-08-29T18:29:43.263Z,12.23
2017-08-29T18:32:09.660Z,13.10
2017-08-29T18:34:36.751Z,13.13
2017-08-29T18:37:03.108Z,12.93
2017-08-29T18:39:29.594Z,11.87
2017-08-29T18:41:55.920Z,15.70
2017-08-29T18:44:22.439Z,11.90
2017-08-29T18:46:48.751Z,14.67
2017-08-29T18:49:15.644Z,13.33
2017-08-29T18:51:41.967Z,12.20
2017-08-29T18:54:08.302Z,12.87
2017-08-29T18:56:34.726Z,12.57
2017-08-29T18:59:01.103Z,12.30
2017-08-29T19:01:27.574Z,12.70
2017-08-29T19:03:54.728Z,12.60
2017-08-29T19:06:21.044Z,12.80
2017-08-29T19:08:47.471Z,12.80
2017-08-29T19:11:13.793Z,19.33
2017-08-29T19:13:40.295Z,22.13
2017-08-29T19:16:06.715Z,21.87
2017-08-29T19:18:33.057Z,20.80
2017-08-29T19:20:59.729Z,20.40
2017-08-29T19:23:26.227Z,22.10
2017-08-29T19:25:52.662Z,16.53
2017-08-29T19:28:18.999Z,15.90
2017-08-29T19:30:45.613Z,15.40
2017-08-29T19:33:12.053Z,15.30
2017-08-29T19:35:38.545Z,15.00
2017-08-29T19:38:05.012Z,14.40
2017-08-29T19:40:31.407Z,14.40
2017-08-29T19:42:57.745Z,15.00
2017-08-29T19:45:24.085Z,17.33
2017-08-29T19:47:50.576Z,18.50
2017-08-29T19:50:17.004Z,16.17
2017-08-29T19:52:43.420Z,15.53
2017-08-29T19:55:09.762Z,16.80
2017-08-29T19:57:36.245Z,16.60
2017-08-29T20:00:02.967Z,18.70
2017-08-29T20:02:29.328Z,27.70
2017-08-29T20:04:55.768Z,38.60
2017-08-29T20:07:22.231Z,34.23
2017-08-29T20:09:48.539Z,20.90
2017-08-29T20:12:15.091Z,18.77
2017-08-29T20:14:41.503Z,17.07
2017-08-29T20:17:07.834Z,16.90
2017-08-29T20:19:34.184Z,18.63
2017-08-29T20:22:00.560Z,18.00
2017-08-29T20:24:26.913Z,18.43
2017-08-29T20:26:53.521Z,17.63
2017-08-29T20:29:19.933Z,18.67
2017-08-29T20:31:46.259Z,16.87
2017-08-29T20:34:12.615Z,19.77
2017-08-29T20:36:39.019Z,15.73
2017-08-29T20:39:05.353Z,14.40
2017-08-29T20:41:31.709Z,16.00
2017-08-29T20:43:58.063Z,15.63
2017-08-29T20:46:24.392Z,16.00
2017-08-29T20:48:50.759Z,16.00
2017-08-29T20:51:17.520Z,16.50
2017-08-29T20:53:43.879Z,17.07
2017-08-29T20:56:10.212Z,18.30
2017-08-29T20:58:36.593Z,17.13
2017-08-29T21:01:02.942Z,16.50
2017-08-29T21:03:29.271Z,16.10
2017-08-29T21:05:55.634Z,16.17
2017-08-29T21:08:22.201Z,18.73
2017-08-29T21:10:48.564Z,18.13
2017-08-29T21:13:14.892Z,19.20
2017-08-29T21:15:41.265Z,16.60
2017-08-29T21:18:07.575Z,16.87
2017-08-29T21:20:34.476Z,18.60
2017-08-29T21:23:00.884Z,21.67
2017-08-29T21:25:27.343Z,19.53
2017-08-29T21:27:53.674Z,18.50
2017-08-29T21:30:20.114Z,17.00
2017-08-29T21:32:46.471Z,18.40
2017-08-29T21:35:12.834Z,19.77
2017-08-29T21:37:39.232Z,16.27
2017-08-29T21:40:05.592Z,22.63
2017-08-29T21:42:33.225Z,16.57
2017-08-29T21:44:59.823Z,16.00
2017-08-29T21:47:26.209Z,16.43
2017-08-29T21:49:52.581Z,17.53
2017-08-29T21:52:18.937Z,16.77
2017-08-29T21:54:45.293Z,17.13
2017-08-29T21:57:11.661Z,17.40
2017-08-29T21:59:38.269Z,17.80
2017-08-29T22:02:04.947Z,16.20
2017-08-29T22:04:31.267Z,17.63
2017-08-29T22:06:58.543Z,17.47
2017-08-29T22:09:24.874Z,15.80
2017-08-29T22:11:51.232Z,16.00
2017-08-29T22:14:17.794Z,15.87
2017-08-29T22:16:44.119Z,15.60
2017-08-29T22:19:10.440Z,17.17
2017-08-29T22:21:36.799Z,16.43
2017-08-29T22:24:03.161Z,15.57
2017-08-29T22:26:29.479Z,15.80
2017-08-29T22:28:56.463Z,15.30
2017-08-29T22:31:22.861Z,15.40
2017-08-29T22:33:49.191Z,14.63
2017-08-29T22:36:15.614Z,16.30
2017-08-29T22:38:41.941Z,17.30
2017-08-29T22:41:08.306Z,15.00
2017-08-29T22:43:34.634Z,14.60
2017-08-29T22:46:01.040Z,16.00
2017-08-29T22:48:27.459Z,15.27
2017-08-29T22:50:53.851Z,16.37
2017-08-29T22:53:20.175Z,15.93
2017-08-29T22:55:46.561Z,15.30
2017-08-29T22:58:12.893Z,15.40
2017-08-29T23:00:39.253Z,15.90
2017-08-29T23:03:05.642Z,17.10
2017-08-29T23:05:32.091Z,16.03
2017-08-29T23:07:58.622Z,17.70
2017-08-29T23:10:25.048Z,14.47
2017-08-29T23:12:51.484Z,16.20
2017-08-29T23:15:17.827Z,14.77
2017-08-29T23:17:44.176Z,16.73
2017-08-29T23:20:10.545Z,15.27
2017-08-29T23:22:36.940Z,15.30
2017-08-29T23:25:03.565Z,15.93
2017-08-29T23:27:29.889Z,14.50
2017-08-29T23:29:56.253Z,15.87
2017-08-29T23:32:22.571Z,15.53
2017-08-29T23:34:48.891Z,15.77
2017-08-29T23:37:15.284Z,16.23
2017-08-29T23:39:41.666Z,15.23
2017-08-29T23:42:08.052Z,18.73
2017-08-29T23:44:34.407Z,15.70
2017-08-29T23:47:00.825Z,13.83
2017-08-29T23:49:27.179Z,14.83
2017-08-29T23:51:53.547Z,16.10
2017-08-29T23:54:19.923Z,14.53
2017-08-29T23:56:46.243Z,13.30
2017-08-29T23:59:12.606Z,15.27
